sensor_id;sensor_type;location;lat;lon;timestamp;P1;durP1;ratioP1;P2;durP2;ratioP2
59145;SDS011;44928;53.074;6.646;2023-03-14T00:02:25;23.90;;;4.57;;
59145;SDS011;44928;53.074;6.646;2023-03-14T00:04:55;23.00;;;5.05;;
59145;SDS011;44928;53.074;6.646;2023-03-14T00:07:21;20.10;;;4.65;;
59145;SDS011;44928;53.074;6.646;2023-03-14T00:09:50;24.65;;;5.05;;
59145;SDS011;44928;53.074;6.646;2023-03-14T00:12:16;21.50;;;3.92;;
59145;SDS011;44928;53.074;6.646;2023-03-14T00:14:41;22.42;;;4.68;;
59145;SDS011;44928;53.074;6.646;2023-03-14T00:17:08;22.15;;;4.32;;
59145;SDS011;44928;53.074;6.646;2023-03-14T00:19:34;20.15;;;3.45;;
59145;SDS011;44928;53.074;6.646;2023-03-14T00:22:00;19.65;;;3.80;;
59145;SDS011;44928;53.074;6.646;2023-03-14T00:24:26;18.13;;;4.30;;
59145;SDS011;44928;53.074;6.646;2023-03-14T00:26:52;18.73;;;4.47;;
59145;SDS011;44928;53.074;6.646;2023-03-14T00:29:17;22.23;;;4.85;;
59145;SDS011;44928;53.074;6.646;2023-03-14T00:31:43;17.35;;;3.83;;
59145;SDS011;44928;53.074;6.646;2023-03-14T00:34:09;21.35;;;4.25;;
59145;SDS011;44928;53.074;6.646;2023-03-14T00:36:35;18.38;;;3.72;;
59145;SDS011;44928;53.074;6.646;2023-03-14T00:39:00;18.25;;;4.25;;
59145;SDS011;44928;53.074;6.646;2023-03-14T00:41:26;16.33;;;3.55;;
59145;SDS011;44928;53.074;6.646;2023-03-14T00:43:52;19.58;;;3.35;;
59145;SDS011;44928;53.074;6.646;2023-03-14T00:46:18;20.20;;;3.50;;
59145;SDS011;44928;53.074;6.646;2023-03-14T00:48:44;17.52;;;3.65;;
59145;SDS011;44928;53.074;6.646;2023-03-14T00:51:11;18.00;;;4.03;;
59145;SDS011;44928;53.074;6.646;2023-03-14T00:53:39;20.88;;;4.30;;
59145;SDS011;44928;53.074;6.646;2023-03-14T00:56:05;19.58;;;4.03;;
59145;SDS011;44928;53.074;6.646;2023-03-14T00:58:33;16.85;;;3.42;;
59145;SDS011;44928;53.074;6.646;2023-03-14T01:01:04;19.52;;;4.07;;
59145;SDS011;44928;53.074;6.646;2023-03-14T01:03:34;19.35;;;3.58;;
59145;SDS011;44928;53.074;6.646;2023-03-14T01:06:10;20.02;;;4.13;;
59145;SDS011;44928;53.074;6.646;2023-03-14T01:08:41;17.73;;;3.83;;
59145;SDS011;44928;53.074;6.646;2023-03-14T01:11:08;18.27;;;3.63;;
59145;SDS011;44928;53.074;6.646;2023-03-14T01:13:35;17.75;;;3.63;;
59145;SDS011;44928;53.074;6.646;2023-03-14T01:16:05;19.65;;;4.00;;
59145;SDS011;44928;53.074;6.646;2023-03-14T01:21:00;19.85;;;4.13;;
59145;SDS011;44928;53.074;6.646;2023-03-14T01:23:26;19.50;;;4.05;;
59145;SDS011;44928;53.074;6.646;2023-03-14T01:25:52;19.35;;;3.58;;
59145;SDS011;44928;53.074;6.646;2023-03-14T01:28:18;17.48;;;3.72;;
59145;SDS011;44928;53.074;6.646;2023-03-14T01:30:44;14.32;;;3.58;;
59145;SDS011;44928;53.074;6.646;2023-03-14T01:33:09;17.05;;;4.45;;
59145;SDS011;44928;53.074;6.646;2023-03-14T01:35:37;12.65;;;2.97;;
59145;SDS011;44928;53.074;6.646;2023-03-14T01:38:03;13.55;;;2.90;;
59145;SDS011;44928;53.074;6.646;2023-03-14T01:40:29;15.82;;;3.67;;
59145;SDS011;44928;53.074;6.646;2023-03-14T01:42:55;17.05;;;3.08;;
59145;SDS011;44928;53.074;6.646;2023-03-14T01:48:38;16.92;;;3.13;;
59145;SDS011;44928;53.074;6.646;2023-03-14T01:51:09;14.80;;;2.70;;
59145;SDS011;44928;53.074;6.646;2023-03-14T01:56:05;12.57;;;2.83;;
59145;SDS011;44928;53.074;6.646;2023-03-14T01:58:32;16.20;;;2.65;;
59145;SDS011;44928;53.074;6.646;2023-03-14T02:01:01;14.02;;;3.17;;
59145;SDS011;44928;53.074;6.646;2023-03-14T02:03:28;11.77;;;2.60;;
59145;SDS011;44928;53.074;6.646;2023-03-14T02:05:56;16.75;;;2.63;;
59145;SDS011;44928;53.074;6.646;2023-03-14T02:08:29;15.95;;;3.00;;
59145;SDS011;44928;53.074;6.646;2023-03-14T02:10:56;16.13;;;2.67;;
59145;SDS011;44928;53.074;6.646;2023-03-14T02:13:22;14.48;;;2.90;;
59145;SDS011;44928;53.074;6.646;2023-03-14T02:15:48;12.27;;;2.25;;
59145;SDS011;44928;53.074;6.646;2023-03-14T02:18:15;13.55;;;3.05;;
59145;SDS011;44928;53.074;6.646;2023-03-14T02:26:27;12.68;;;2.42;;
59145;SDS011;44928;53.074;6.646;2023-03-14T02:28:58;13.68;;;3.00;;
59145;SDS011;44928;53.074;6.646;2023-03-14T02:31:24;14.80;;;2.60;;
59145;SDS011;44928;53.074;6.646;2023-03-14T02:33:50;10.77;;;2.20;;
59145;SDS011;44928;53.074;6.646;2023-03-14T02:36:16;10.48;;;2.38;;
59145;SDS011;44928;53.074;6.646;2023-03-14T02:41:45;11.90;;;2.30;;
59145;SDS011;44928;53.074;6.646;2023-03-14T02:44:11;10.23;;;2.25;;
59145;SDS011;44928;53.074;6.646;2023-03-14T02:46:37;13.07;;;2.50;;
59145;SDS011;44928;53.074;6.646;2023-03-14T02:49:10;13.25;;;2.22;;
59145;SDS011;44928;53.074;6.646;2023-03-14T02:51:38;12.98;;;2.38;;
59145;SDS011;44928;53.074;6.646;2023-03-14T02:54:06;10.15;;;2.17;;
59145;SDS011;44928;53.074;6.646;2023-03-14T02:56:32;10.57;;;2.70;;
59145;SDS011;44928;53.074;6.646;2023-03-14T02:58:58;12.70;;;2.08;;
59145;SDS011;44928;53.074;6.646;2023-03-14T03:01:27;10.45;;;2.25;;
59145;SDS011;44928;53.074;6.646;2023-03-14T03:03:53;8.63;;;1.83;;
59145;SDS011;44928;53.074;6.646;2023-03-14T03:06:19;6.35;;;1.42;;
59145;SDS011;44928;53.074;6.646;2023-03-14T03:08:44;7.90;;;1.65;;
59145;SDS011;44928;53.074;6.646;2023-03-14T03:11:10;11.18;;;1.92;;
59145;SDS011;44928;53.074;6.646;2023-03-14T03:13:36;11.45;;;2.15;;
59145;SDS011;44928;53.074;6.646;2023-03-14T03:16:02;14.40;;;2.45;;
59145;SDS011;44928;53.074;6.646;2023-03-14T03:18:28;9.57;;;1.70;;
59145;SDS011;44928;53.074;6.646;2023-03-14T03:20:54;13.55;;;2.78;;
59145;SDS011;44928;53.074;6.646;2023-03-14T03:23:19;12.90;;;2.97;;
59145;SDS011;44928;53.074;6.646;2023-03-14T03:25:49;13.95;;;2.92;;
59145;SDS011;44928;53.074;6.646;2023-03-14T03:28:15;14.25;;;3.15;;
59145;SDS011;44928;53.074;6.646;2023-03-14T03:30:41;13.75;;;3.42;;
59145;SDS011;44928;53.074;6.646;2023-03-14T03:33:08;15.05;;;3.72;;
59145;SDS011;44928;53.074;6.646;2023-03-14T03:35:34;14.77;;;3.78;;
59145;SDS011;44928;53.074;6.646;2023-03-14T03:38:00;14.88;;;4.20;;
59145;SDS011;44928;53.074;6.646;2023-03-14T03:40:26;17.63;;;3.88;;
59145;SDS011;44928;53.074;6.646;2023-03-14T03:42:52;12.23;;;3.20;;
59145;SDS011;44928;53.074;6.646;2023-03-14T03:45:17;11.98;;;3.00;;
59145;SDS011;44928;53.074;6.646;2023-03-14T03:47:43;13.70;;;3.50;;
59145;SDS011;44928;53.074;6.646;2023-03-14T03:50:09;13.90;;;3.10;;
59145;SDS011;44928;53.074;6.646;2023-03-14T03:52:35;17.92;;;4.15;;
59145;SDS011;44928;53.074;6.646;2023-03-14T03:55:01;12.68;;;3.30;;
59145;SDS011;44928;53.074;6.646;2023-03-14T03:57:27;17.55;;;3.75;;
59145;SDS011;44928;53.074;6.646;2023-03-14T03:59:52;12.45;;;3.72;;
59145;SDS011;44928;53.074;6.646;2023-03-14T04:02:18;19.25;;;4.35;;
59145;SDS011;44928;53.074;6.646;2023-03-14T04:04:44;12.88;;;3.83;;
59145;SDS011;44928;53.074;6.646;2023-03-14T04:07:09;12.68;;;3.45;;
59145;SDS011;44928;53.074;6.646;2023-03-14T04:09:38;11.02;;;3.30;;
59145;SDS011;44928;53.074;6.646;2023-03-14T04:12:04;11.75;;;3.47;;
59145;SDS011;44928;53.074;6.646;2023-03-14T04:14:30;12.95;;;3.45;;
59145;SDS011;44928;53.074;6.646;2023-03-14T04:16:55;12.40;;;3.38;;
59145;SDS011;44928;53.074;6.646;2023-03-14T04:19:21;11.63;;;3.65;;
59145;SDS011;44928;53.074;6.646;2023-03-14T04:21:47;14.98;;;4.13;;
59145;SDS011;44928;53.074;6.646;2023-03-14T04:24:13;12.52;;;4.43;;
59145;SDS011;44928;53.074;6.646;2023-03-14T04:26:39;14.88;;;4.70;;
59145;SDS011;44928;53.074;6.646;2023-03-14T04:29:05;13.02;;;4.10;;
59145;SDS011;44928;53.074;6.646;2023-03-14T04:31:30;11.38;;;3.25;;
59145;SDS011;44928;53.074;6.646;2023-03-14T04:33:56;16.85;;;4.63;;
59145;SDS011;44928;53.074;6.646;2023-03-14T04:36:22;13.63;;;4.43;;
59145;SDS011;44928;53.074;6.646;2023-03-14T04:38:48;14.75;;;3.83;;
59145;SDS011;44928;53.074;6.646;2023-03-14T04:41:13;12.35;;;3.95;;
59145;SDS011;44928;53.074;6.646;2023-03-14T04:43:39;10.27;;;3.95;;
59145;SDS011;44928;53.074;6.646;2023-03-14T04:46:05;14.95;;;4.00;;
59145;SDS011;44928;53.074;6.646;2023-03-14T04:48:31;14.52;;;4.00;;
59145;SDS011;44928;53.074;6.646;2023-03-14T04:50:57;11.02;;;3.70;;
59145;SDS011;44928;53.074;6.646;2023-03-14T04:53:22;12.90;;;3.72;;
59145;SDS011;44928;53.074;6.646;2023-03-14T04:55:49;11.32;;;3.63;;
59145;SDS011;44928;53.074;6.646;2023-03-14T04:58:16;12.10;;;2.85;;
59145;SDS011;44928;53.074;6.646;2023-03-14T05:00:42;8.75;;;3.35;;
59145;SDS011;44928;53.074;6.646;2023-03-14T05:03:08;10.50;;;3.25;;
59145;SDS011;44928;53.074;6.646;2023-03-14T05:05:34;10.50;;;3.30;;
59145;SDS011;44928;53.074;6.646;2023-03-14T05:08:00;9.40;;;3.03;;
59145;SDS011;44928;53.074;6.646;2023-03-14T05:10:25;16.85;;;4.20;;
59145;SDS011;44928;53.074;6.646;2023-03-14T05:12:51;15.40;;;3.92;;
59145;SDS011;44928;53.074;6.646;2023-03-14T05:15:17;13.05;;;3.05;;
59145;SDS011;44928;53.074;6.646;2023-03-14T05:17:43;14.27;;;4.20;;
59145;SDS011;44928;53.074;6.646;2023-03-14T05:20:09;17.15;;;4.35;;
59145;SDS011;44928;53.074;6.646;2023-03-14T05:22:37;15.75;;;4.03;;
59145;SDS011;44928;53.074;6.646;2023-03-14T05:25:04;12.85;;;3.90;;
59145;SDS011;44928;53.074;6.646;2023-03-14T05:27:30;13.70;;;4.20;;
59145;SDS011;44928;53.074;6.646;2023-03-14T05:29:56;16.35;;;4.05;;
59145;SDS011;44928;53.074;6.646;2023-03-14T05:32:21;14.07;;;3.70;;
59145;SDS011;44928;53.074;6.646;2023-03-14T05:34:47;14.48;;;4.22;;
59145;SDS011;44928;53.074;6.646;2023-03-14T05:37:13;12.93;;;4.22;;
59145;SDS011;44928;53.074;6.646;2023-03-14T05:39:39;15.60;;;4.15;;
59145;SDS011;44928;53.074;6.646;2023-03-14T05:42:04;15.20;;;4.40;;
59145;SDS011;44928;53.074;6.646;2023-03-14T05:44:30;15.75;;;4.85;;
59145;SDS011;44928;53.074;6.646;2023-03-14T05:46:56;10.32;;;3.92;;
59145;SDS011;44928;53.074;6.646;2023-03-14T05:49:22;11.35;;;4.03;;
59145;SDS011;44928;53.074;6.646;2023-03-14T05:51:48;12.32;;;4.47;;
59145;SDS011;44928;53.074;6.646;2023-03-14T05:54:13;11.40;;;4.07;;
59145;SDS011;44928;53.074;6.646;2023-03-14T05:56:39;11.43;;;4.50;;
59145;SDS011;44928;53.074;6.646;2023-03-14T05:59:05;12.77;;;4.25;;
59145;SDS011;44928;53.074;6.646;2023-03-14T06:01:33;13.48;;;4.65;;
59145;SDS011;44928;53.074;6.646;2023-03-14T06:03:59;17.08;;;5.03;;
59145;SDS011;44928;53.074;6.646;2023-03-14T06:06:25;10.93;;;3.88;;
59145;SDS011;44928;53.074;6.646;2023-03-14T06:08:51;12.25;;;4.82;;
59145;SDS011;44928;53.074;6.646;2023-03-14T06:11:16;12.98;;;3.63;;
59145;SDS011;44928;53.074;6.646;2023-03-14T06:13:42;10.60;;;4.05;;
59145;SDS011;44928;53.074;6.646;2023-03-14T06:16:08;13.70;;;4.40;;
59145;SDS011;44928;53.074;6.646;2023-03-14T06:18:34;12.23;;;4.38;;
59145;SDS011;44928;53.074;6.646;2023-03-14T06:21:00;14.90;;;4.05;;
59145;SDS011;44928;53.074;6.646;2023-03-14T06:23:26;8.80;;;2.90;;
59145;SDS011;44928;53.074;6.646;2023-03-14T06:25:52;12.43;;;3.40;;
59145;SDS011;44928;53.074;6.646;2023-03-14T06:28:18;11.00;;;3.60;;
59145;SDS011;44928;53.074;6.646;2023-03-14T06:30:43;10.52;;;3.40;;
59145;SDS011;44928;53.074;6.646;2023-03-14T06:33:09;10.07;;;3.63;;
59145;SDS011;44928;53.074;6.646;2023-03-14T06:35:35;9.57;;;3.40;;
59145;SDS011;44928;53.074;6.646;2023-03-14T06:38:01;11.15;;;3.22;;
59145;SDS011;44928;53.074;6.646;2023-03-14T06:40:27;8.77;;;3.17;;
59145;SDS011;44928;53.074;6.646;2023-03-14T06:42:53;8.77;;;3.33;;
59145;SDS011;44928;53.074;6.646;2023-03-14T06:45:18;9.38;;;3.33;;
59145;SDS011;44928;53.074;6.646;2023-03-14T06:47:44;14.60;;;4.43;;
59145;SDS011;44928;53.074;6.646;2023-03-14T06:50:10;9.02;;;3.22;;
59145;SDS011;44928;53.074;6.646;2023-03-14T06:52:36;9.05;;;3.97;;
59145;SDS011;44928;53.074;6.646;2023-03-14T06:55:02;8.90;;;1.90;;
59145;SDS011;44928;53.074;6.646;2023-03-14T06:57:28;4.05;;;0.70;;
59145;SDS011;44928;53.074;6.646;2023-03-14T06:59:54;6.15;;;1.02;;
59145;SDS011;44928;53.074;6.646;2023-03-14T07:02:20;6.70;;;1.08;;
59145;SDS011;44928;53.074;6.646;2023-03-14T07:04:47;8.77;;;1.20;;
59145;SDS011;44928;53.074;6.646;2023-03-14T07:07:12;8.48;;;0.98;;
59145;SDS011;44928;53.074;6.646;2023-03-14T07:09:38;6.95;;;1.00;;
59145;SDS011;44928;53.074;6.646;2023-03-14T07:12:04;7.05;;;1.10;;
59145;SDS011;44928;53.074;6.646;2023-03-14T07:14:30;10.13;;;1.25;;
59145;SDS011;44928;53.074;6.646;2023-03-14T07:16:56;8.88;;;1.65;;
59145;SDS011;44928;53.074;6.646;2023-03-14T07:19:22;12.25;;;1.40;;
59145;SDS011;44928;53.074;6.646;2023-03-14T07:21:48;7.82;;;1.20;;
59145;SDS011;44928;53.074;6.646;2023-03-14T07:24:14;10.20;;;1.52;;
59145;SDS011;44928;53.074;6.646;2023-03-14T07:26:39;7.60;;;1.10;;
59145;SDS011;44928;53.074;6.646;2023-03-14T07:29:05;8.80;;;1.20;;
59145;SDS011;44928;53.074;6.646;2023-03-14T07:31:31;9.10;;;1.20;;
59145;SDS011;44928;53.074;6.646;2023-03-14T07:33:57;7.80;;;1.13;;
59145;SDS011;44928;53.074;6.646;2023-03-14T07:36:23;6.45;;;1.08;;
59145;SDS011;44928;53.074;6.646;2023-03-14T07:38:49;5.05;;;0.73;;
59145;SDS011;44928;53.074;6.646;2023-03-14T07:41:14;7.05;;;1.10;;
59145;SDS011;44928;53.074;6.646;2023-03-14T07:43:40;8.68;;;1.08;;
59145;SDS011;44928;53.074;6.646;2023-03-14T07:46:06;5.10;;;0.80;;
59145;SDS011;44928;53.074;6.646;2023-03-14T07:48:32;1.77;;;0.40;;
59145;SDS011;44928;53.074;6.646;2023-03-14T07:50:58;3.28;;;0.40;;
59145;SDS011;44928;53.074;6.646;2023-03-14T07:53:24;4.75;;;0.82;;
59145;SDS011;44928;53.074;6.646;2023-03-14T07:55:51;4.82;;;0.60;;
59145;SDS011;44928;53.074;6.646;2023-03-14T07:58:18;5.07;;;0.60;;
59145;SDS011;44928;53.074;6.646;2023-03-14T08:00:44;1.35;;;0.35;;
59145;SDS011;44928;53.074;6.646;2023-03-14T08:03:10;1.90;;;0.35;;
59145;SDS011;44928;53.074;6.646;2023-03-14T08:05:37;5.80;;;0.57;;
59145;SDS011;44928;53.074;6.646;2023-03-14T08:08:03;3.40;;;0.70;;
59145;SDS011;44928;53.074;6.646;2023-03-14T08:10:30;2.97;;;0.40;;
59145;SDS011;44928;53.074;6.646;2023-03-14T08:12:56;3.13;;;0.80;;
59145;SDS011;44928;53.074;6.646;2023-03-14T08:15:23;2.30;;;0.47;;
59145;SDS011;44928;53.074;6.646;2023-03-14T08:17:50;7.22;;;0.60;;
59145;SDS011;44928;53.074;6.646;2023-03-14T08:20:16;3.92;;;0.60;;
59145;SDS011;44928;53.074;6.646;2023-03-14T08:22:43;4.43;;;0.60;;
59145;SDS011;44928;53.074;6.646;2023-03-14T08:25:09;3.35;;;0.60;;
59145;SDS011;44928;53.074;6.646;2023-03-14T08:27:35;3.63;;;0.90;;
59145;SDS011;44928;53.074;6.646;2023-03-14T08:30:04;3.00;;;0.60;;
59145;SDS011;44928;53.074;6.646;2023-03-14T08:32:31;4.47;;;0.65;;
59145;SDS011;44928;53.074;6.646;2023-03-14T08:34:57;2.50;;;0.50;;
59145;SDS011;44928;53.074;6.646;2023-03-14T08:37:23;3.50;;;0.55;;
59145;SDS011;44928;53.074;6.646;2023-03-14T08:39:50;6.00;;;0.60;;
59145;SDS011;44928;53.074;6.646;2023-03-14T08:42:16;5.40;;;0.60;;
59145;SDS011;44928;53.074;6.646;2023-03-14T08:44:42;4.47;;;0.70;;
59145;SDS011;44928;53.074;6.646;2023-03-14T08:47:09;7.53;;;0.75;;
59145;SDS011;44928;53.074;6.646;2023-03-14T08:49:34;5.90;;;0.80;;
59145;SDS011;44928;53.074;6.646;2023-03-14T08:52:03;7.68;;;0.98;;
59145;SDS011;44928;53.074;6.646;2023-03-14T08:54:30;8.95;;;1.20;;
59145;SDS011;44928;53.074;6.646;2023-03-14T08:56:56;6.55;;;1.02;;
59145;SDS011;44928;53.074;6.646;2023-03-14T08:59:22;5.72;;;0.93;;
59145;SDS011;44928;53.074;6.646;2023-03-14T09:01:48;6.55;;;1.20;;
59145;SDS011;44928;53.074;6.646;2023-03-14T09:04:14;9.20;;;1.10;;
59145;SDS011;44928;53.074;6.646;2023-03-14T09:06:40;6.63;;;1.20;;
59145;SDS011;44928;53.074;6.646;2023-03-14T09:09:06;9.27;;;1.10;;
59145;SDS011;44928;53.074;6.646;2023-03-14T09:11:32;9.43;;;1.13;;
59145;SDS011;44928;53.074;6.646;2023-03-14T09:13:58;10.75;;;1.63;;
59145;SDS011;44928;53.074;6.646;2023-03-14T09:16:24;11.90;;;1.67;;
59145;SDS011;44928;53.074;6.646;2023-03-14T09:18:49;16.10;;;2.63;;
59145;SDS011;44928;53.074;6.646;2023-03-14T09:21:19;12.57;;;1.50;;
59145;SDS011;44928;53.074;6.646;2023-03-14T09:23:46;14.75;;;2.22;;
59145;SDS011;44928;53.074;6.646;2023-03-14T09:26:12;13.60;;;2.13;;
59145;SDS011;44928;53.074;6.646;2023-03-14T09:28:38;16.10;;;2.80;;
59145;SDS011;44928;53.074;6.646;2023-03-14T09:31:07;17.63;;;2.38;;
59145;SDS011;44928;53.074;6.646;2023-03-14T09:33:34;17.77;;;2.35;;
59145;SDS011;44928;53.074;6.646;2023-03-14T09:36:01;16.73;;;2.45;;
59145;SDS011;44928;53.074;6.646;2023-03-14T09:38:27;16.33;;;2.50;;
59145;SDS011;44928;53.074;6.646;2023-03-14T09:40:53;14.45;;;2.97;;
59145;SDS011;44928;53.074;6.646;2023-03-14T09:43:20;13.57;;;2.55;;
59145;SDS011;44928;53.074;6.646;2023-03-14T09:45:49;20.75;;;3.28;;
59145;SDS011;44928;53.074;6.646;2023-03-14T09:48:17;15.75;;;3.47;;
59145;SDS011;44928;53.074;6.646;2023-03-14T09:50:55;18.77;;;2.95;;
59145;SDS011;44928;53.074;6.646;2023-03-14T09:53:34;14.57;;;2.72;;
59145;SDS011;44928;53.074;6.646;2023-03-14T09:56:29;17.80;;;2.63;;
59145;SDS011;44928;53.074;6.646;2023-03-14T09:58:57;12.60;;;2.25;;
59145;SDS011;44928;53.074;6.646;2023-03-14T10:01:26;18.85;;;2.38;;
59145;SDS011;44928;53.074;6.646;2023-03-14T10:03:55;14.63;;;2.63;;
59145;SDS011;44928;53.074;6.646;2023-03-14T10:06:24;14.40;;;1.92;;
59145;SDS011;44928;53.074;6.646;2023-03-14T10:08:55;12.73;;;2.15;;
59145;SDS011;44928;53.074;6.646;2023-03-14T10:11:22;18.38;;;3.15;;
59145;SDS011;44928;53.074;6.646;2023-03-14T10:14:05;13.30;;;2.90;;
59145;SDS011;44928;53.074;6.646;2023-03-14T10:16:32;18.45;;;2.75;;
59145;SDS011;44928;53.074;6.646;2023-03-14T10:19:07;17.20;;;3.28;;
59145;SDS011;44928;53.074;6.646;2023-03-14T10:21:39;16.77;;;2.50;;
59145;SDS011;44928;53.074;6.646;2023-03-14T10:24:16;19.63;;;3.35;;
59145;SDS011;44928;53.074;6.646;2023-03-14T10:27:00;21.83;;;2.72;;
59145;SDS011;44928;53.074;6.646;2023-03-14T10:29:28;16.60;;;2.40;;
59145;SDS011;44928;53.074;6.646;2023-03-14T10:32:05;19.33;;;2.88;;
59145;SDS011;44928;53.074;6.646;2023-03-14T10:34:38;18.23;;;2.50;;
59145;SDS011;44928;53.074;6.646;2023-03-14T10:37:14;18.95;;;3.08;;
59145;SDS011;44928;53.074;6.646;2023-03-14T10:39:49;16.38;;;3.15;;
59145;SDS011;44928;53.074;6.646;2023-03-14T10:42:25;14.02;;;2.33;;
59145;SDS011;44928;53.074;6.646;2023-03-14T10:44:55;14.35;;;2.38;;
59145;SDS011;44928;53.074;6.646;2023-03-14T10:47:27;13.25;;;1.98;;
59145;SDS011;44928;53.074;6.646;2023-03-14T10:49:53;8.20;;;1.35;;
59145;SDS011;44928;53.074;6.646;2023-03-14T10:52:27;12.15;;;2.13;;
59145;SDS011;44928;53.074;6.646;2023-03-14T10:55:01;17.20;;;2.20;;
59145;SDS011;44928;53.074;6.646;2023-03-14T10:57:38;18.05;;;2.42;;
59145;SDS011;44928;53.074;6.646;2023-03-14T11:00:17;10.60;;;1.73;;
59145;SDS011;44928;53.074;6.646;2023-03-14T11:05:21;11.57;;;2.00;;
59145;SDS011;44928;53.074;6.646;2023-03-14T11:08:09;11.88;;;2.50;;
59145;SDS011;44928;53.074;6.646;2023-03-14T11:10:40;10.02;;;1.45;;
59145;SDS011;44928;53.074;6.646;2023-03-14T11:29:20;9.82;;;1.75;;
59145;SDS011;44928;53.074;6.646;2023-03-14T11:31:52;9.15;;;1.52;;
59145;SDS011;44928;53.074;6.646;2023-03-14T11:37:04;8.85;;;1.75;;
59145;SDS011;44928;53.074;6.646;2023-03-14T11:39:53;8.15;;;1.60;;
59145;SDS011;44928;53.074;6.646;2023-03-14T11:42:22;10.90;;;1.75;;
59145;SDS011;44928;53.074;6.646;2023-03-14T11:44:51;8.50;;;1.90;;
59145;SDS011;44928;53.074;6.646;2023-03-14T11:47:24;6.30;;;1.05;;
59145;SDS011;44928;53.074;6.646;2023-03-14T11:49:58;7.50;;;1.40;;
59145;SDS011;44928;53.074;6.646;2023-03-14T11:52:36;8.32;;;1.38;;
59145;SDS011;44928;53.074;6.646;2023-03-14T11:57:34;6.78;;;1.38;;
59145;SDS011;44928;53.074;6.646;2023-03-14T12:02:45;9.30;;;1.50;;
59145;SDS011;44928;53.074;6.646;2023-03-14T12:10:42;6.32;;;1.08;;
59145;SDS011;44928;53.074;6.646;2023-03-14T12:13:16;7.88;;;1.30;;
59145;SDS011;44928;53.074;6.646;2023-03-14T12:15:49;6.10;;;0.93;;
59145;SDS011;44928;53.074;6.646;2023-03-14T12:18:28;9.52;;;1.33;;
59145;SDS011;44928;53.074;6.646;2023-03-14T12:21:37;8.07;;;1.58;;
59145;SDS011;44928;53.074;6.646;2023-03-14T12:23:55;8.50;;;1.40;;
59145;SDS011;44928;53.074;6.646;2023-03-14T12:26:26;12.75;;;1.70;;
59145;SDS011;44928;53.074;6.646;2023-03-14T12:29:14;10.60;;;1.10;;
59145;SDS011;44928;53.074;6.646;2023-03-14T12:42:01;7.40;;;1.20;;
59145;SDS011;44928;53.074;6.646;2023-03-14T12:44:38;9.18;;;1.30;;
59145;SDS011;44928;53.074;6.646;2023-03-14T12:49:44;7.45;;;1.48;;
59145;SDS011;44928;53.074;6.646;2023-03-14T12:52:22;3.63;;;0.73;;
59145;SDS011;44928;53.074;6.646;2023-03-14T12:55:15;9.40;;;1.38;;
59145;SDS011;44928;53.074;6.646;2023-03-14T12:57:57;8.15;;;1.23;;
59145;SDS011;44928;53.074;6.646;2023-03-14T13:00:34;8.30;;;1.45;;
59145;SDS011;44928;53.074;6.646;2023-03-14T13:03:25;13.88;;;2.08;;
59145;SDS011;44928;53.074;6.646;2023-03-14T13:05:53;11.52;;;1.98;;
59145;SDS011;44928;53.074;6.646;2023-03-14T13:08:34;6.72;;;1.13;;
59145;SDS011;44928;53.074;6.646;2023-03-14T13:11:06;9.02;;;1.30;;
59145;SDS011;44928;53.074;6.646;2023-03-14T13:13:41;7.35;;;1.38;;
59145;SDS011;44928;53.074;6.646;2023-03-14T13:16:19;7.35;;;1.20;;
59145;SDS011;44928;53.074;6.646;2023-03-14T13:18:47;7.53;;;1.02;;
59145;SDS011;44928;53.074;6.646;2023-03-14T13:24:01;11.23;;;1.70;;
59145;SDS011;44928;53.074;6.646;2023-03-14T13:26:47;7.07;;;1.10;;
59145;SDS011;44928;53.074;6.646;2023-03-14T13:29:24;9.73;;;1.60;;
59145;SDS011;44928;53.074;6.646;2023-03-14T13:31:55;12.63;;;1.65;;
59145;SDS011;44928;53.074;6.646;2023-03-14T13:34:28;7.93;;;1.20;;
59145;SDS011;44928;53.074;6.646;2023-03-14T13:36:55;6.93;;;1.20;;
59145;SDS011;44928;53.074;6.646;2023-03-14T13:39:22;7.82;;;1.50;;
59145;SDS011;44928;53.074;6.646;2023-03-14T13:41:54;9.85;;;1.83;;
59145;SDS011;44928;53.074;6.646;2023-03-14T13:44:27;9.02;;;1.52;;
59145;SDS011;44928;53.074;6.646;2023-03-14T13:46:58;11.57;;;1.38;;
59145;SDS011;44928;53.074;6.646;2023-03-14T13:49:26;5.35;;;0.90;;
59145;SDS011;44928;53.074;6.646;2023-03-14T13:51:54;9.18;;;1.58;;
59145;SDS011;44928;53.074;6.646;2023-03-14T13:54:20;8.13;;;1.25;;
59145;SDS011;44928;53.074;6.646;2023-03-14T13:56:47;7.97;;;1.35;;
59145;SDS011;44928;53.074;6.646;2023-03-14T13:59:23;7.25;;;1.25;;
59145;SDS011;44928;53.074;6.646;2023-03-14T14:01:50;5.97;;;1.35;;
59145;SDS011;44928;53.074;6.646;2023-03-14T14:04:23;7.97;;;1.45;;
59145;SDS011;44928;53.074;6.646;2023-03-14T14:06:55;8.23;;;1.67;;
59145;SDS011;44928;53.074;6.646;2023-03-14T14:11:52;7.38;;;1.20;;
59145;SDS011;44928;53.074;6.646;2023-03-14T14:14:47;7.00;;;2.03;;
59145;SDS011;44928;53.074;6.646;2023-03-14T14:17:28;6.47;;;1.17;;
59145;SDS011;44928;53.074;6.646;2023-03-14T14:20:04;7.90;;;1.27;;
59145;SDS011;44928;53.074;6.646;2023-03-14T14:22:33;8.13;;;1.17;;
59145;SDS011;44928;53.074;6.646;2023-03-14T14:25:00;6.68;;;1.17;;
59145;SDS011;44928;53.074;6.646;2023-03-14T14:30:04;9.13;;;1.67;;
59145;SDS011;44928;53.074;6.646;2023-03-14T14:32:39;8.90;;;1.20;;
59145;SDS011;44928;53.074;6.646;2023-03-14T14:35:06;9.93;;;1.35;;
59145;SDS011;44928;53.074;6.646;2023-03-14T14:37:41;5.60;;;1.15;;
59145;SDS011;44928;53.074;6.646;2023-03-14T14:40:21;9.60;;;1.17;;
59145;SDS011;44928;53.074;6.646;2023-03-14T14:42:49;7.70;;;1.50;;
59145;SDS011;44928;53.074;6.646;2023-03-14T14:45:23;6.00;;;1.00;;
59145;SDS011;44928;53.074;6.646;2023-03-14T14:50:29;8.75;;;1.60;;
59145;SDS011;44928;53.074;6.646;2023-03-14T14:52:58;9.57;;;1.92;;
59145;SDS011;44928;53.074;6.646;2023-03-14T14:55:34;7.03;;;1.80;;
59145;SDS011;44928;53.074;6.646;2023-03-14T14:58:17;9.00;;;1.30;;
59145;SDS011;44928;53.074;6.646;2023-03-14T15:00:49;11.23;;;1.65;;
59145;SDS011;44928;53.074;6.646;2023-03-14T15:03:42;11.32;;;1.58;;
59145;SDS011;44928;53.074;6.646;2023-03-14T15:06:11;9.30;;;1.30;;
59145;SDS011;44928;53.074;6.646;2023-03-14T15:08:38;6.18;;;1.17;;
59145;SDS011;44928;53.074;6.646;2023-03-14T15:11:04;7.95;;;1.30;;
59145;SDS011;44928;53.074;6.646;2023-03-14T15:13:30;9.18;;;1.63;;
59145;SDS011;44928;53.074;6.646;2023-03-14T15:15:56;8.00;;;1.10;;
59145;SDS011;44928;53.074;6.646;2023-03-14T15:18:23;10.45;;;1.52;;
59145;SDS011;44928;53.074;6.646;2023-03-14T15:20:50;10.73;;;1.75;;
59145;SDS011;44928;53.074;6.646;2023-03-14T15:23:17;7.65;;;1.27;;
59145;SDS011;44928;53.074;6.646;2023-03-14T15:25:45;7.55;;;1.10;;
59145;SDS011;44928;53.074;6.646;2023-03-14T15:30:43;8.98;;;1.27;;
59145;SDS011;44928;53.074;6.646;2023-03-14T15:33:09;10.27;;;1.42;;
59145;SDS011;44928;53.074;6.646;2023-03-14T15:35:38;7.88;;;1.35;;
59145;SDS011;44928;53.074;6.646;2023-03-14T15:38:04;7.35;;;1.08;;
59145;SDS011;44928;53.074;6.646;2023-03-14T15:40:30;6.88;;;1.00;;
59145;SDS011;44928;53.074;6.646;2023-03-14T15:42:56;8.60;;;1.20;;
59145;SDS011;44928;53.074;6.646;2023-03-14T15:45:22;10.82;;;1.73;;
59145;SDS011;44928;53.074;6.646;2023-03-14T15:47:47;8.95;;;1.73;;
59145;SDS011;44928;53.074;6.646;2023-03-14T15:50:13;7.00;;;1.08;;
59145;SDS011;44928;53.074;6.646;2023-03-14T15:52:39;8.20;;;1.20;;
59145;SDS011;44928;53.074;6.646;2023-03-14T15:55:05;5.90;;;1.23;;
59145;SDS011;44928;53.074;6.646;2023-03-14T15:57:31;9.93;;;2.45;;
59145;SDS011;44928;53.074;6.646;2023-03-14T15:59:57;10.68;;;1.33;;
59145;SDS011;44928;53.074;6.646;2023-03-14T16:02:22;9.55;;;1.40;;
59145;SDS011;44928;53.074;6.646;2023-03-14T16:04:48;9.13;;;1.70;;